createdAt,value
2023-02-19T00:02:15.658Z,11.66
2023-02-19T00:04:42.834Z,11.64
2023-02-19T00:07:09.974Z,11.65
2023-02-19T00:09:37.111Z,11.65
2023-02-19T00:12:04.306Z,11.64
2023-02-19T00:14:31.271Z,11.64
2023-02-19T00:16:58.297Z,11.64
2023-02-19T00:19:25.507Z,11.64
2023-02-19T00:21:53.474Z,11.63
2023-02-19T00:24:21.743Z,11.63
2023-02-19T00:26:49.240Z,11.62
2023-02-19T00:29:20.511Z,11.62
2023-02-19T00:31:48.489Z,11.62
2023-02-19T00:34:15.791Z,11.61
2023-02-19T00:36:43.745Z,11.60
2023-02-19T00:39:15.679Z,11.59
2023-02-19T00:41:44.034Z,11.56
2023-02-19T00:44:12.317Z,11.58
2023-02-19T00:46:48.363Z,11.58
2023-02-19T00:49:22.790Z,11.55
2023-02-19T00:51:52.553Z,11.52
2023-02-19T00:54:20.470Z,11.51
2023-02-19T00:56:48.006Z,11.53
2023-02-19T00:59:15.800Z,11.53
2023-02-19T01:01:44.607Z,11.50
2023-02-19T01:04:11.801Z,11.50
2023-02-19T01:06:38.869Z,11.50
2023-02-19T01:09:07.788Z,11.51
2023-02-19T01:11:35.821Z,11.51
2023-02-19T01:14:04.889Z,11.51
2023-02-19T01:16:32.638Z,11.51
2023-02-19T01:19:00.771Z,11.52
2023-02-19T01:21:29.530Z,11.52
2023-02-19T01:23:58.040Z,11.52
2023-02-19T01:26:30.073Z,11.52
2023-02-19T01:28:58.213Z,11.53
2023-02-19T01:31:26.040Z,11.53
2023-02-19T01:34:04.620Z,11.54
2023-02-19T01:36:34.319Z,11.54
2023-02-19T01:39:05.034Z,11.53
2023-02-19T01:41:36.467Z,11.53
2023-02-19T01:44:12.493Z,11.55
2023-02-19T01:46:42.629Z,11.54
2023-02-19T01:49:26.199Z,11.54
2023-02-19T01:52:04.543Z,11.55
2023-02-19T01:54:38.161Z,11.55
2023-02-19T01:57:13.546Z,11.56
2023-02-19T01:59:41.192Z,11.55
2023-02-19T02:02:09.414Z,11.53
2023-02-19T02:04:36.746Z,11.53
2023-02-19T02:07:26.347Z,11.50
2023-02-19T02:10:12.585Z,11.53
2023-02-19T02:12:39.698Z,11.52
2023-02-19T02:15:07.880Z,11.53
2023-02-19T02:17:51.514Z,11.51
2023-02-19T02:20:44.616Z,11.53
2023-02-19T02:23:56.064Z,11.50
2023-02-19T02:26:46.603Z,11.49
2023-02-19T02:29:45.420Z,11.50
2023-02-19T02:32:20.109Z,11.49
2023-02-19T02:35:01.207Z,11.46
2023-02-19T02:37:34.610Z,11.47
2023-02-19T02:40:07.463Z,11.46
2023-02-19T02:42:35.893Z,11.47
2023-02-19T02:45:36.804Z,11.48
2023-02-19T02:48:18.890Z,11.47
2023-02-19T02:51:35.156Z,11.46
2023-02-19T02:54:27.711Z,11.46
2023-02-19T02:56:56.588Z,11.44
2023-02-19T02:59:28.871Z,11.41
2023-02-19T03:02:14.752Z,11.36
2023-02-19T03:05:23.980Z,11.28
2023-02-19T03:08:10.169Z,11.22
2023-02-19T03:11:24.352Z,11.16
2023-02-19T03:14:16.742Z,11.09
2023-02-19T03:17:06.713Z,11.03
2023-02-19T03:19:42.164Z,11.01
2023-02-19T03:22:17.640Z,10.99
2023-02-19T03:25:18.808Z,10.95
2023-02-19T03:27:48.152Z,10.93
2023-02-19T03:30:25.211Z,10.92
2023-02-19T03:33:03.430Z,10.90
2023-02-19T03:35:45.050Z,10.90
2023-02-19T03:38:20.386Z,10.90
2023-02-19T03:41:02.418Z,10.91
2023-02-19T03:44:02.912Z,10.91
2023-02-19T03:46:48.602Z,10.90
2023-02-19T03:49:56.667Z,10.92
2023-02-19T03:52:41.459Z,10.92
2023-02-19T03:55:25.001Z,10.92
2023-02-19T03:57:55.371Z,10.92
2023-02-19T04:00:39.856Z,10.93
2023-02-19T04:03:29.009Z,10.92
2023-02-19T04:06:04.331Z,10.92
2023-02-19T04:08:35.497Z,10.92
2023-02-19T04:11:03.416Z,10.93
2023-02-19T04:13:43.551Z,10.89
2023-02-19T04:16:20.543Z,10.90
2023-02-19T04:18:53.197Z,10.87
2023-02-19T04:21:22.523Z,10.83
2023-02-19T04:23:50.399Z,10.81
2023-02-19T04:26:21.022Z,10.81
2023-02-19T04:28:48.013Z,10.83
2023-02-19T04:31:15.286Z,10.85
2023-02-19T04:33:42.340Z,10.85
2023-02-19T04:36:11.681Z,10.85
2023-02-19T04:38:39.068Z,10.86
2023-02-19T04:41:06.312Z,10.84
2023-02-19T04:43:33.533Z,10.86
2023-02-19T04:46:01.978Z,10.87
2023-02-19T04:48:29.542Z,10.86
2023-02-19T04:50:56.760Z,10.86
2023-02-19T04:53:24.278Z,10.85
2023-02-19T04:55:53.381Z,10.83
2023-02-19T04:58:21.329Z,10.84
2023-02-19T05:00:53.148Z,10.83
2023-02-19T05:03:20.544Z,10.85
2023-02-19T05:05:47.584Z,10.86
2023-02-19T05:08:14.633Z,10.85
2023-02-19T05:10:41.627Z,10.81
2023-02-19T05:13:09.112Z,10.74
2023-02-19T05:15:36.499Z,10.70
2023-02-19T05:18:04.080Z,10.67
2023-02-19T05:20:31.051Z,10.64
2023-02-19T05:22:58.285Z,10.61
2023-02-19T05:25:25.481Z,10.57
2023-02-19T05:28:12.574Z,10.55
2023-02-19T05:30:39.573Z,10.52
2023-02-19T05:33:06.920Z,10.51
2023-02-19T05:35:34.076Z,10.52
2023-02-19T05:38:01.200Z,10.51
2023-02-19T05:40:28.300Z,10.52
2023-02-19T05:42:55.568Z,10.51
2023-02-19T05:45:22.668Z,10.49
2023-02-19T05:47:50.381Z,10.47
2023-02-19T05:50:17.859Z,10.46
2023-02-19T05:52:45.268Z,10.46
2023-02-19T05:55:12.841Z,10.43
2023-02-19T05:57:45.202Z,10.43
2023-02-19T06:00:18.633Z,10.42
2023-02-19T06:02:46.121Z,10.40
2023-02-19T06:05:14.475Z,10.41
2023-02-19T06:07:42.899Z,10.40
2023-02-19T06:10:12.786Z,10.39
2023-02-19T06:12:40.082Z,10.40
2023-02-19T06:15:07.726Z,10.43
2023-02-19T06:17:35.341Z,10.42
2023-02-19T06:20:03.288Z,10.41
2023-02-19T06:22:30.600Z,10.40
2023-02-19T06:24:58.133Z,10.42
2023-02-19T06:27:25.235Z,10.44
2023-02-19T06:29:52.328Z,10.45
2023-02-19T06:32:19.790Z,10.46
2023-02-19T06:34:46.925Z,10.46
2023-02-19T06:37:13.871Z,10.47
2023-02-19T06:39:40.922Z,10.47
2023-02-19T06:42:08.093Z,10.43
2023-02-19T06:44:35.503Z,10.44
2023-02-19T06:47:02.751Z,10.46
2023-02-19T06:49:30.208Z,10.45
2023-02-19T06:51:57.380Z,10.48
2023-02-19T06:54:25.992Z,10.47
2023-02-19T06:56:53.419Z,10.51
2023-02-19T06:59:20.434Z,10.53
2023-02-19T07:01:47.825Z,10.54
2023-02-19T07:04:15.914Z,10.55
2023-02-19T07:06:43.352Z,10.55
2023-02-19T07:09:11.381Z,10.55
2023-02-19T07:11:40.316Z,10.57
2023-02-19T07:14:13.861Z,10.59
2023-02-19T07:16:41.196Z,10.58
2023-02-19T07:19:08.254Z,10.61
2023-02-19T07:21:37.803Z,10.67
2023-02-19T07:24:06.051Z,10.70
2023-02-19T07:26:33.233Z,10.70
2023-02-19T07:29:01.712Z,10.79
2023-02-19T07:31:29.498Z,10.81
2023-02-19T07:33:56.952Z,10.79
2023-02-19T07:36:25.383Z,10.79
2023-02-19T07:39:00.066Z,10.80
2023-02-19T07:41:28.276Z,10.77
2023-02-19T07:43:55.405Z,10.72
2023-02-19T07:46:23.623Z,10.76
2023-02-19T07:48:50.696Z,10.72
2023-02-19T07:51:20.018Z,10.68
2023-02-19T07:53:50.293Z,10.63
2023-02-19T07:56:19.844Z,10.59
2023-02-19T07:58:47.110Z,10.55
2023-02-19T08:01:18.571Z,10.56
2023-02-19T08:03:48.209Z,10.51
2023-02-19T08:06:16.468Z,10.44
2023-02-19T08:08:43.631Z,10.39
2023-02-19T08:11:29.210Z,10.40
2023-02-19T08:13:56.452Z,10.38
2023-02-19T08:16:40.721Z,10.41
2023-02-19T08:19:10.058Z,10.51
2023-02-19T08:21:37.047Z,10.61
2023-02-19T08:24:04.828Z,10.72
2023-02-19T08:26:33.613Z,10.77
2023-02-19T08:29:00.999Z,10.72
2023-02-19T08:31:28.380Z,10.83
2023-02-19T08:33:55.452Z,10.92
2023-02-19T08:36:22.470Z,10.89
2023-02-19T08:38:49.699Z,10.88
2023-02-19T08:41:16.829Z,10.92
2023-02-19T08:43:44.497Z,10.99
2023-02-19T08:46:12.978Z,10.99
2023-02-19T08:48:40.458Z,11.02
2023-02-19T08:51:11.645Z,10.99
2023-02-19T08:53:40.866Z,11.03
2023-02-19T08:56:14.989Z,11.18
2023-02-19T08:58:43.578Z,11.24
2023-02-19T09:01:14.141Z,11.23
2023-02-19T09:03:42.119Z,11.20
2023-02-19T09:06:16.836Z,11.18
2023-02-19T09:08:44.086Z,11.19
2023-02-19T09:11:12.884Z,11.17
2023-02-19T09:13:40.299Z,11.09
2023-02-19T09:16:08.211Z,11.23
2023-02-19T09:18:36.268Z,11.40
2023-02-19T09:21:06.031Z,11.47
2023-02-19T09:23:35.309Z,11.57
2023-02-19T09:26:06.841Z,11.72
2023-02-19T09:28:34.243Z,11.90
2023-02-19T09:31:07.940Z,11.87
2023-02-19T09:33:35.519Z,11.88
2023-02-19T09:36:04.137Z,11.96
2023-02-19T09:38:31.456Z,11.89
2023-02-19T09:41:00.216Z,11.74
2023-02-19T09:43:29.903Z,11.84
2023-02-19T09:46:35.110Z,12.02
2023-02-19T09:49:13.645Z,12.03
2023-02-19T09:51:46.067Z,12.01
2023-02-19T09:54:26.659Z,12.04
2023-02-19T09:56:56.834Z,12.21
2023-02-19T09:59:41.038Z,12.28
2023-02-19T10:02:24.686Z,12.30
2023-02-19T10:04:53.527Z,12.44
2023-02-19T10:07:25.907Z,12.56
2023-02-19T10:10:02.475Z,12.70
2023-02-19T10:12:32.136Z,12.80
2023-02-19T10:15:16.894Z,12.85
2023-02-19T10:17:43.852Z,12.78
2023-02-19T10:20:24.805Z,12.72
2023-02-19T10:23:03.987Z,12.57
2023-02-19T10:36:30.525Z,12.95
2023-02-19T10:39:05.790Z,13.00
2023-02-19T10:41:33.214Z,13.03
2023-02-19T10:44:07.575Z,13.05
2023-02-19T10:46:47.018Z,13.06
2023-02-19T10:49:32.964Z,13.07
2023-02-19T10:52:18.730Z,12.85
2023-02-19T10:54:50.046Z,12.64
2023-02-19T10:57:21.288Z,12.66
2023-02-19T10:59:57.964Z,12.75
2023-02-19T11:02:26.204Z,12.90
2023-02-19T11:05:09.660Z,13.02
2023-02-19T11:07:58.270Z,13.16
2023-02-19T11:10:29.866Z,13.31
2023-02-19T11:13:02.318Z,13.40
2023-02-19T11:15:36.488Z,13.50
2023-02-19T11:18:12.448Z,13.59
2023-02-19T11:21:04.756Z,13.55
2023-02-19T11:23:44.000Z,13.43
2023-02-19T11:26:25.520Z,13.37
2023-02-19T11:29:02.529Z,13.43
2023-02-19T11:31:35.417Z,13.47
2023-02-19T11:34:14.918Z,13.67
2023-02-19T11:36:42.648Z,13.89
2023-02-19T11:39:27.940Z,14.12
2023-02-19T11:42:03.910Z,14.34
2023-02-19T11:44:56.582Z,14.57
2023-02-19T11:47:57.733Z,14.72
2023-02-19T11:50:46.407Z,14.77
2023-02-19T11:53:32.217Z,14.71
2023-02-19T11:56:28.754Z,14.54
2023-02-19T11:59:00.827Z,14.36
2023-02-19T12:04:59.522Z,14.35
2023-02-19T12:07:38.337Z,14.31
2023-02-19T12:10:23.211Z,14.28
2023-02-19T12:13:28.286Z,14.28
2023-02-19T12:16:25.488Z,14.12
2023-02-19T12:19:57.737Z,13.91
2023-02-19T12:22:31.175Z,13.71
2023-02-19T12:25:12.385Z,13.58
2023-02-19T12:28:24.004Z,13.58
2023-02-19T12:31:06.453Z,13.71
2023-02-19T12:34:08.226Z,13.85
2023-02-19T12:36:46.997Z,13.92
2023-02-19T12:39:41.560Z,13.93
2023-02-19T12:42:42.380Z,13.94
2023-02-19T12:45:39.091Z,13.93
2023-02-19T12:48:44.929Z,14.02
2023-02-19T12:51:24.049Z,14.10
2023-02-19T12:54:06.085Z,14.08
2023-02-19T12:56:55.285Z,13.86
2023-02-19T12:59:42.434Z,13.65
2023-02-19T13:02:27.692Z,13.51
2023-02-19T13:05:21.359Z,13.51
2023-02-19T13:08:04.160Z,13.65
2023-02-19T13:10:41.779Z,13.80
2023-02-19T13:13:45.047Z,13.85
2023-02-19T13:16:18.706Z,13.87
2023-02-19T13:19:05.014Z,13.88
2023-02-19T13:21:55.480Z,13.83
2023-02-19T13:24:41.677Z,13.85
2023-02-19T13:27:35.823Z,13.96
2023-02-19T13:30:20.587Z,13.78
2023-02-19T13:33:21.364Z,13.48
2023-02-19T13:36:06.326Z,13.24
2023-02-19T13:41:32.270Z,12.96
2023-02-19T13:44:08.349Z,13.02
2023-02-19T13:46:43.376Z,13.23
2023-02-19T13:49:34.643Z,13.19
2023-02-19T13:52:22.089Z,13.00
2023-02-19T13:54:49.633Z,12.89
2023-02-19T13:57:26.956Z,12.79
2023-02-19T13:59:58.546Z,12.58
2023-02-19T14:02:32.209Z,12.42
2023-02-19T14:05:12.930Z,12.31
2023-02-19T14:07:56.021Z,12.22
2023-02-19T14:11:02.657Z,12.09
2023-02-19T14:13:51.359Z,12.12
2023-02-19T14:16:35.256Z,12.13
2023-02-19T14:19:02.493Z,12.10
2023-02-19T14:21:40.889Z,12.00
2023-02-19T14:24:14.794Z,11.87
2023-02-19T14:26:42.515Z,11.73
2023-02-19T14:29:14.687Z,11.60
2023-02-19T14:31:46.217Z,11.55
2023-02-19T14:34:23.687Z,11.47
2023-02-19T14:37:06.882Z,11.37
2023-02-19T14:39:40.526Z,11.32
2023-02-19T14:42:23.741Z,11.32
2023-02-19T14:44:58.236Z,11.30
2023-02-19T14:47:30.954Z,11.23
2023-02-19T14:50:15.327Z,11.15
2023-02-19T14:52:50.121Z,11.11
2023-02-19T14:55:38.653Z,11.10
2023-02-19T14:58:13.538Z,11.11
2023-02-19T15:00:42.614Z,11.06
2023-02-19T15:03:35.886Z,10.96
2023-02-19T15:06:21.444Z,10.93
2023-02-19T15:08:53.522Z,10.90
2023-02-19T15:11:27.038Z,10.88
2023-02-19T15:14:02.877Z,10.91
2023-02-19T15:16:36.163Z,10.92
2023-02-19T15:19:10.448Z,10.95
2023-02-19T15:21:44.550Z,10.99
2023-02-19T15:24:15.504Z,10.99
2023-02-19T15:26:54.199Z,10.96
2023-02-19T15:29:26.410Z,10.95
2023-02-19T15:31:59.710Z,10.94
2023-02-19T15:34:30.047Z,10.93
2023-02-19T15:37:09.683Z,10.91
2023-02-19T15:39:48.193Z,10.87
2023-02-19T15:42:25.934Z,10.82
2023-02-19T15:45:01.260Z,10.79
2023-02-19T15:48:01.152Z,10.71
2023-02-19T15:50:35.668Z,10.68
2023-02-19T15:53:23.237Z,10.61
2023-02-19T15:56:32.308Z,10.57
2023-02-19T15:59:22.522Z,10.56
2023-02-19T16:01:50.223Z,10.55
2023-02-19T16:04:19.759Z,10.55
2023-02-19T16:07:03.988Z,10.47
2023-02-19T16:09:39.732Z,10.41
2023-02-19T16:12:24.922Z,10.36
2023-02-19T16:14:51.982Z,10.27
2023-02-19T16:17:23.244Z,10.15
2023-02-19T16:19:59.866Z,10.08
2023-02-19T16:22:33.193Z,10.02
2023-02-19T16:25:06.817Z,9.99
2023-02-19T16:27:40.089Z,9.92
2023-02-19T16:30:33.821Z,9.85
2023-02-19T16:33:42.834Z,9.76
2023-02-19T16:36:41.575Z,9.68
2023-02-19T16:39:23.410Z,9.63
2023-02-19T16:41:50.332Z,9.57
2023-02-19T16:44:27.500Z,9.57
2023-02-19T16:47:13.791Z,9.55
2023-02-19T16:49:42.705Z,9.54
2023-02-19T16:52:15.588Z,9.55
2023-02-19T16:54:43.434Z,9.55
2023-02-19T16:57:10.703Z,9.57
2023-02-19T16:59:37.935Z,9.59
2023-02-19T17:02:09.191Z,9.58
2023-02-19T17:04:36.744Z,9.59
2023-02-19T17:07:03.949Z,9.56
2023-02-19T17:09:31.235Z,9.54
2023-02-19T17:11:58.566Z,9.50
2023-02-19T17:14:25.879Z,9.50
2023-02-19T17:16:53.206Z,9.49
2023-02-19T17:19:23.072Z,9.51
2023-02-19T17:21:50.334Z,9.52
2023-02-19T17:24:17.798Z,9.51
2023-02-19T17:26:45.252Z,9.51
2023-02-19T17:29:15.578Z,9.53
2023-02-19T17:31:42.957Z,9.50
2023-02-19T17:34:10.582Z,9.50
2023-02-19T17:36:42.921Z,9.49
2023-02-19T17:39:15.205Z,9.46
2023-02-19T17:41:42.508Z,9.40
2023-02-19T17:44:10.559Z,9.38
2023-02-19T17:46:39.136Z,9.33
2023-02-19T17:49:07.590Z,9.28
2023-02-19T17:51:35.493Z,9.26
2023-02-19T17:54:02.613Z,9.26
2023-02-19T17:56:29.839Z,9.21
2023-02-19T17:58:58.499Z,9.15
2023-02-19T18:01:25.836Z,9.12
2023-02-19T18:03:53.018Z,9.07
2023-02-19T18:06:20.888Z,9.07
2023-02-19T18:08:51.154Z,9.08
2023-02-19T18:11:19.623Z,9.11
2023-02-19T18:13:48.118Z,9.14
2023-02-19T18:16:18.140Z,9.12
2023-02-19T18:18:45.693Z,9.13
2023-02-19T18:21:14.241Z,9.12
2023-02-19T18:23:42.229Z,9.12
2023-02-19T18:26:10.882Z,9.11
2023-02-19T18:28:38.472Z,9.09
2023-02-19T18:31:06.448Z,9.04
2023-02-19T18:33:35.016Z,8.98
2023-02-19T18:36:03.105Z,8.89
2023-02-19T18:38:30.217Z,8.82
2023-02-19T18:40:58.773Z,8.75
2023-02-19T18:43:26.416Z,8.70
2023-02-19T18:45:53.813Z,8.66
2023-02-19T18:48:21.164Z,8.63
2023-02-19T18:50:48.348Z,8.59
2023-02-19T18:53:15.614Z,8.54
2023-02-19T18:55:43.054Z,8.48
2023-02-19T18:58:10.443Z,8.43
2023-02-19T19:00:37.831Z,8.38
2023-02-19T19:03:05.140Z,8.35
2023-02-19T19:05:34.471Z,8.32
2023-02-19T19:08:02.166Z,8.30
2023-02-19T19:10:31.004Z,8.26
2023-02-19T19:12:58.675Z,8.23
2023-02-19T19:15:26.546Z,8.21
2023-02-19T19:17:53.933Z,8.17
2023-02-19T19:20:23.267Z,8.12
2023-02-19T19:22:54.383Z,8.08
2023-02-19T19:25:23.136Z,8.05
2023-02-19T19:27:54.678Z,8.01
2023-02-19T19:30:22.008Z,7.99
2023-02-19T19:32:52.065Z,7.91
2023-02-19T19:35:21.010Z,7.89
2023-02-19T19:37:48.921Z,7.85
2023-02-19T19:40:18.158Z,7.83
2023-02-19T19:42:45.606Z,7.81
2023-02-19T19:45:13.844Z,7.80
2023-02-19T19:47:41.857Z,7.76
2023-02-19T19:50:10.136Z,7.75
2023-02-19T19:52:37.348Z,7.72
2023-02-19T19:55:05.997Z,7.72
2023-02-19T19:57:33.146Z,7.70
2023-02-19T20:00:01.061Z,7.67
2023-02-19T20:02:28.433Z,7.66
2023-02-19T20:04:55.728Z,7.65
2023-02-19T20:07:22.986Z,7.63
2023-02-19T20:09:50.669Z,7.62
2023-02-19T20:12:18.090Z,7.61
2023-02-19T20:14:46.739Z,7.56
2023-02-19T20:17:14.936Z,7.53
2023-02-19T20:19:42.447Z,7.50
2023-02-19T20:22:09.511Z,7.50
2023-02-19T20:24:36.714Z,7.47
2023-02-19T20:27:04.464Z,7.44
2023-02-19T20:29:34.768Z,7.41
2023-02-19T20:32:03.767Z,7.38
2023-02-19T20:34:31.643Z,7.34
2023-02-19T20:36:59.016Z,7.30
2023-02-19T20:39:29.042Z,7.28
2023-02-19T20:41:57.822Z,7.23
2023-02-19T20:44:27.255Z,7.20
2023-02-19T20:46:55.116Z,7.18
2023-02-19T20:49:25.822Z,7.17
2023-02-19T20:51:58.174Z,7.15
2023-02-19T20:54:29.310Z,7.14
2023-02-19T20:56:59.144Z,7.08
2023-02-19T20:59:30.954Z,7.04
2023-02-19T21:02:24.650Z,6.98
2023-02-19T21:04:51.701Z,6.91
2023-02-19T21:07:18.906Z,6.84
2023-02-19T21:09:45.940Z,6.80
2023-02-19T21:12:13.169Z,6.75
2023-02-19T21:14:40.631Z,6.72
2023-02-19T21:17:07.893Z,6.68
2023-02-19T21:19:35.218Z,6.66
2023-02-19T21:22:02.438Z,6.64
2023-02-19T21:24:29.845Z,6.61
2023-02-19T21:26:56.862Z,6.60
2023-02-19T21:29:24.197Z,6.58
2023-02-19T21:31:55.303Z,6.54
2023-02-19T21:34:26.612Z,6.52
2023-02-19T21:36:59.916Z,6.51
2023-02-19T21:39:28.548Z,6.51
2023-02-19T21:41:58.527Z,6.51
2023-02-19T21:44:26.342Z,6.49
2023-02-19T21:46:53.521Z,6.48
2023-02-19T21:49:20.687Z,6.46
2023-02-19T21:51:50.939Z,6.44
2023-02-19T21:54:27.035Z,6.42
2023-02-19T21:56:54.828Z,6.41
2023-02-19T21:59:23.255Z,6.40
2023-02-19T22:01:51.067Z,6.38
2023-02-19T22:04:20.844Z,6.38
2023-02-19T22:06:48.122Z,6.38
2023-02-19T22:09:16.187Z,6.36
2023-02-19T22:11:43.531Z,6.36
2023-02-19T22:14:10.827Z,6.33
2023-02-19T22:16:38.011Z,6.35
2023-02-19T22:19:05.472Z,6.35
2023-02-19T22:21:33.155Z,6.34
2023-02-19T22:24:02.706Z,6.33
2023-02-19T22:26:33.603Z,6.32
2023-02-19T22:29:05.934Z,6.30
2023-02-19T22:31:34.675Z,6.28
2023-02-19T22:34:01.995Z,6.26
2023-02-19T22:36:31.874Z,6.23
2023-02-19T22:39:00.137Z,6.20
2023-02-19T22:41:27.612Z,6.21
2023-02-19T22:43:57.562Z,6.17
2023-02-19T22:46:28.781Z,6.18
2023-02-19T22:48:56.090Z,6.18
2023-02-19T22:51:24.710Z,6.15
2023-02-19T22:53:57.635Z,6.12
2023-02-19T22:56:28.459Z,6.10
2023-02-19T22:58:57.384Z,6.05
2023-02-19T23:01:25.345Z,6.05
2023-02-19T23:03:56.600Z,6.05
2023-02-19T23:06:26.692Z,6.04
2023-02-19T23:08:56.567Z,6.02
2023-02-19T23:11:30.235Z,6.01
2023-02-19T23:13:58.296Z,6.01
2023-02-19T23:16:25.599Z,6.00
2023-02-19T23:18:52.989Z,5.97
2023-02-19T23:21:20.979Z,5.98
2023-02-19T23:23:48.629Z,5.97
2023-02-19T23:26:16.837Z,5.95
2023-02-19T23:28:45.390Z,5.95
2023-02-19T23:31:13.335Z,5.97
2023-02-19T23:33:41.758Z,5.94
2023-02-19T23:36:13.490Z,5.98
2023-02-19T23:38:43.440Z,5.97
2023-02-19T23:41:13.094Z,5.98
2023-02-19T23:43:40.273Z,6.01
2023-02-19T23:46:07.818Z,6.02
2023-02-19T23:48:36.278Z,6.06
2023-02-19T23:51:03.523Z,6.07
2023-02-19T23:53:31.019Z,6.12
2023-02-19T23:55:58.298Z,6.14
2023-02-19T23:58:25.490Z,6.18
